createdAt,value
2022-10-05T00:00:16.516Z,5.80
2022-10-05T00:02:44.224Z,3.03
2022-10-05T00:05:33.127Z,4.85
2022-10-05T00:08:11.853Z,4.60
2022-10-05T00:10:41.443Z,4.45
2022-10-05T00:13:19.548Z,7.20
2022-10-05T00:15:46.909Z,5.18
2022-10-05T00:18:16.544Z,4.10
2022-10-05T00:20:44.702Z,4.63
2022-10-05T00:23:21.567Z,4.25
2022-10-05T00:28:26.551Z,4.82
2022-10-05T00:30:59.167Z,3.72
2022-10-05T00:33:27.587Z,4.70
2022-10-05T00:35:55.371Z,3.75
2022-10-05T00:38:22.635Z,4.85
2022-10-05T00:41:04.544Z,4.88
2022-10-05T00:43:46.282Z,4.20
2022-10-05T00:46:24.003Z,3.95
2022-10-05T00:49:12.911Z,2.33
2022-10-05T00:51:44.058Z,3.28
2022-10-05T00:54:18.457Z,3.55
2022-10-05T00:56:51.389Z,4.65
2022-10-05T00:59:45.853Z,3.90
2022-10-05T01:02:36.910Z,2.95
2022-10-05T01:05:16.493Z,2.70
2022-10-05T01:07:59.425Z,4.15
2022-10-05T01:10:34.511Z,3.95
2022-10-05T01:13:23.443Z,4.75
2022-10-05T01:16:04.242Z,4.45
2022-10-05T01:18:44.308Z,3.63
2022-10-05T01:21:27.809Z,3.78
2022-10-05T01:24:10.647Z,3.63
2022-10-05T01:26:43.709Z,2.83
2022-10-05T01:29:16.854Z,2.65
2022-10-05T01:32:02.831Z,4.18
2022-10-05T01:34:40.840Z,2.72
2022-10-05T01:37:27.737Z,3.90
2022-10-05T01:40:01.057Z,4.82
2022-10-05T01:42:30.577Z,4.95
2022-10-05T01:45:13.499Z,3.88
2022-10-05T01:47:48.137Z,3.10
2022-10-05T01:50:30.961Z,3.60
2022-10-05T01:53:39.348Z,3.80
2022-10-05T01:56:24.838Z,3.13
2022-10-05T01:59:08.160Z,2.10
2022-10-05T02:01:57.573Z,3.28
2022-10-05T02:05:03.645Z,1.80
2022-10-05T02:07:29.557Z,1.80
2022-10-05T02:10:04.796Z,3.78
2022-10-05T02:12:37.515Z,3.10
2022-10-05T02:15:15.109Z,2.70
2022-10-05T02:17:59.232Z,0.88
2022-10-05T02:20:31.665Z,2.50
2022-10-05T02:23:09.467Z,2.17
2022-10-05T02:25:43.908Z,2.83
2022-10-05T02:28:14.655Z,1.98
2022-10-05T02:30:50.390Z,1.65
2022-10-05T02:33:27.469Z,2.67
2022-10-05T02:35:54.989Z,1.25
2022-10-05T02:38:36.770Z,3.70
2022-10-05T02:41:56.438Z,3.97
2022-10-05T02:44:37.466Z,3.78
2022-10-05T02:47:29.861Z,2.03
2022-10-05T02:50:12.221Z,3.75
2022-10-05T02:52:48.180Z,2.53
2022-10-05T02:55:34.031Z,3.45
2022-10-05T02:58:09.468Z,4.35
2022-10-05T03:00:45.737Z,3.72
2022-10-05T03:03:26.892Z,3.47
2022-10-05T03:06:03.778Z,5.18
2022-10-05T03:08:44.887Z,5.05
2022-10-05T03:11:24.114Z,5.40
2022-10-05T03:14:12.994Z,5.97
2022-10-05T03:17:09.130Z,4.13
2022-10-05T03:19:49.902Z,4.47
2022-10-05T03:22:48.867Z,4.00
2022-10-05T03:25:39.364Z,4.45
2022-10-05T03:28:15.105Z,5.20
2022-10-05T03:30:52.047Z,5.40
2022-10-05T03:33:39.526Z,4.95
2022-10-05T03:36:16.928Z,6.57
2022-10-05T03:38:47.720Z,3.97
2022-10-05T03:41:40.470Z,4.43
2022-10-05T03:44:25.164Z,3.50
2022-10-05T03:47:37.340Z,4.45
2022-10-05T03:50:20.218Z,3.70
2022-10-05T03:53:09.253Z,5.25
2022-10-05T03:55:50.034Z,4.32
2022-10-05T03:58:26.169Z,2.97
2022-10-05T04:00:57.751Z,4.63
2022-10-05T04:03:32.791Z,4.00
2022-10-05T04:06:08.332Z,4.28
2022-10-05T04:08:45.377Z,4.32
2022-10-05T04:11:24.222Z,5.88
2022-10-05T04:13:57.939Z,3.90
2022-10-05T04:16:29.223Z,5.15
2022-10-05T04:19:19.180Z,3.95
2022-10-05T04:21:57.734Z,3.78
2022-10-05T04:24:35.097Z,4.22
2022-10-05T04:27:11.051Z,3.08
2022-10-05T04:30:18.672Z,2.80
2022-10-05T04:32:55.046Z,1.73
2022-10-05T04:35:48.035Z,3.75
2022-10-05T04:38:36.058Z,3.13
2022-10-05T04:41:35.290Z,4.00
2022-10-05T04:44:11.142Z,3.33
2022-10-05T04:47:22.436Z,4.03
2022-10-05T04:50:17.751Z,3.75
2022-10-05T04:53:00.200Z,4.25
2022-10-05T04:55:39.612Z,4.07
2022-10-05T04:58:19.419Z,4.18
2022-10-05T05:01:07.876Z,4.32
2022-10-05T05:03:53.037Z,4.22
2022-10-05T05:06:57.798Z,2.17
2022-10-05T05:09:47.988Z,3.30
2022-10-05T05:12:33.027Z,3.42
2022-10-05T05:15:15.434Z,3.47
2022-10-05T05:18:06.055Z,4.43
2022-10-05T05:21:00.002Z,4.93
2022-10-05T05:23:48.764Z,3.55
2022-10-05T05:26:46.441Z,4.65
2022-10-05T05:29:43.068Z,4.80
2022-10-05T05:32:18.566Z,2.50
2022-10-05T05:34:56.246Z,2.17
2022-10-05T05:37:26.477Z,1.08
2022-10-05T05:39:53.193Z,3.35
2022-10-05T05:42:51.030Z,3.72
2022-10-05T05:45:26.691Z,3.88
2022-10-05T05:47:55.075Z,4.38
2022-10-05T05:50:47.107Z,4.30
2022-10-05T05:53:26.083Z,5.32
2022-10-05T05:56:01.411Z,3.65
2022-10-05T05:58:43.399Z,5.75
2022-10-05T06:01:33.247Z,4.93
2022-10-05T06:04:27.837Z,3.25
2022-10-05T06:06:58.197Z,5.63
2022-10-05T06:09:47.130Z,4.50
2022-10-05T06:12:22.511Z,2.92
2022-10-05T06:14:56.567Z,2.95
2022-10-05T06:17:52.804Z,5.80
2022-10-05T06:20:27.358Z,6.00
2022-10-05T06:22:58.811Z,4.95
2022-10-05T06:25:41.844Z,4.97
2022-10-05T06:28:18.132Z,4.15
2022-10-05T06:30:59.752Z,9.93
2022-10-05T06:33:49.359Z,6.13
2022-10-05T06:37:06.438Z,4.90
2022-10-05T06:40:00.048Z,2.58
2022-10-05T06:42:30.409Z,3.90
2022-10-05T06:45:21.562Z,6.18
2022-10-05T06:48:07.025Z,5.35
2022-10-05T06:50:58.151Z,4.97
2022-10-05T06:53:45.340Z,2.55
2022-10-05T06:56:37.332Z,5.07
2022-10-05T06:59:41.523Z,3.92
2022-10-05T07:02:24.662Z,4.15
2022-10-05T07:05:10.809Z,2.65
2022-10-05T07:07:40.516Z,4.10
2022-10-05T07:10:31.312Z,4.25
2022-10-05T07:13:19.364Z,5.15
2022-10-05T07:15:54.996Z,5.25
2022-10-05T07:18:47.064Z,6.10
2022-10-05T07:21:35.636Z,8.65
2022-10-05T07:24:22.653Z,4.57
2022-10-05T07:27:08.962Z,4.82
2022-10-05T07:29:54.384Z,5.18
2022-10-05T07:32:45.843Z,5.75
2022-10-05T07:35:59.744Z,4.30
2022-10-05T07:38:36.074Z,5.00
2022-10-05T07:41:11.176Z,5.60
2022-10-05T07:44:02.500Z,3.13
2022-10-05T07:46:56.788Z,2.80
2022-10-05T07:49:50.530Z,6.22
2022-10-05T07:52:24.058Z,3.85
2022-10-05T07:55:21.642Z,5.40
2022-10-05T07:58:03.604Z,5.25
2022-10-05T08:01:04.820Z,3.53
2022-10-05T08:04:03.808Z,5.22
2022-10-05T08:06:45.995Z,5.68
2022-10-05T08:09:13.111Z,4.18
2022-10-05T08:12:31.834Z,4.78
2022-10-05T08:15:15.634Z,3.30
2022-10-05T08:18:00.690Z,1.75
2022-10-05T08:20:57.824Z,6.38
2022-10-05T08:23:40.964Z,4.40
2022-10-05T08:26:35.811Z,6.15
2022-10-05T08:31:51.889Z,6.85
2022-10-05T08:34:45.720Z,5.95
2022-10-05T08:37:27.664Z,5.15
2022-10-05T08:40:21.404Z,4.13
2022-10-05T08:43:11.436Z,6.00
2022-10-05T08:46:17.753Z,2.67
2022-10-05T08:49:20.596Z,4.07
2022-10-05T08:52:11.949Z,1.27
2022-10-05T08:54:38.792Z,6.18
2022-10-05T08:57:24.575Z,4.30
2022-10-05T08:59:54.564Z,4.80
2022-10-05T09:02:59.140Z,3.97
2022-10-05T09:06:03.690Z,2.25
2022-10-05T09:08:49.545Z,2.72
2022-10-05T09:11:36.384Z,4.22
2022-10-05T09:14:15.547Z,4.93
2022-10-05T09:17:07.254Z,2.05
2022-10-05T09:20:15.144Z,5.15
2022-10-05T09:23:20.719Z,2.63
2022-10-05T09:25:59.331Z,5.25
2022-10-05T09:29:18.521Z,2.17
2022-10-05T09:32:06.606Z,4.70
2022-10-05T09:35:10.992Z,3.10
2022-10-05T09:37:38.477Z,2.00
2022-10-05T09:40:41.686Z,8.00
2022-10-05T09:43:27.433Z,3.03
2022-10-05T09:46:18.884Z,4.15
2022-10-05T09:49:01.285Z,2.53
2022-10-05T09:51:40.219Z,4.35
2022-10-05T09:54:48.954Z,5.18
2022-10-05T09:57:49.280Z,5.45
2022-10-05T10:00:38.648Z,3.33
2022-10-05T10:03:43.289Z,5.68
2022-10-05T10:06:31.471Z,5.57
2022-10-05T10:09:16.921Z,5.70
2022-10-05T10:12:02.340Z,5.03
2022-10-05T10:14:54.281Z,2.67
2022-10-05T10:17:35.279Z,5.35
2022-10-05T10:20:12.865Z,5.00
2022-10-05T10:22:54.712Z,3.47
2022-10-05T10:28:17.895Z,2.75
2022-10-05T10:31:03.560Z,3.80
2022-10-05T10:33:49.021Z,4.30
2022-10-05T10:36:51.917Z,3.35
2022-10-05T10:39:39.274Z,3.90
2022-10-05T10:42:15.158Z,4.18
2022-10-05T10:45:02.150Z,5.15
2022-10-05T10:47:59.810Z,3.13
2022-10-05T10:50:47.835Z,4.18
2022-10-05T10:53:39.045Z,5.63
2022-10-05T10:56:26.985Z,5.80
2022-10-05T10:59:31.785Z,5.07
2022-10-05T11:02:10.761Z,2.67
2022-10-05T11:04:54.789Z,4.00
2022-10-05T11:07:46.469Z,3.83
2022-10-05T11:10:51.190Z,4.88
2022-10-05T11:13:36.982Z,5.80
2022-10-05T11:16:19.817Z,6.45
2022-10-05T11:19:08.191Z,4.85
2022-10-05T11:21:46.198Z,5.28
2022-10-05T11:24:26.235Z,4.60
2022-10-05T11:27:09.539Z,5.63
2022-10-05T11:30:11.549Z,6.40
2022-10-05T11:32:57.760Z,5.13
2022-10-05T11:35:50.238Z,5.80
2022-10-05T11:38:32.390Z,5.78
2022-10-05T11:41:31.391Z,5.07
2022-10-05T11:44:22.642Z,5.70
2022-10-05T11:47:24.492Z,5.35
2022-10-05T11:50:19.057Z,5.03
2022-10-05T11:53:15.246Z,5.72
2022-10-05T11:56:04.349Z,6.40
2022-10-05T11:58:41.293Z,5.85
2022-10-05T12:01:36.624Z,6.43
2022-10-05T12:04:20.930Z,5.72
2022-10-05T12:07:04.791Z,5.63
2022-10-05T12:09:34.376Z,6.38
2022-10-05T12:12:11.943Z,5.27
2022-10-05T12:15:25.635Z,6.68
2022-10-05T12:18:01.228Z,6.40
2022-10-05T12:20:33.598Z,4.50
2022-10-05T12:23:14.297Z,7.53
2022-10-05T12:26:01.272Z,7.15
2022-10-05T12:28:51.418Z,5.57
2022-10-05T12:31:26.327Z,7.35
2022-10-05T12:34:02.125Z,6.40
2022-10-05T12:37:03.068Z,4.90
2022-10-05T12:40:12.170Z,5.30
2022-10-05T12:43:00.815Z,7.05
2022-10-05T12:45:38.081Z,5.60
2022-10-05T12:48:18.886Z,4.97
2022-10-05T12:50:51.025Z,6.87
2022-10-05T12:53:42.535Z,8.23
2022-10-05T12:56:39.151Z,6.43
2022-10-05T12:59:15.396Z,6.10
2022-10-05T13:02:05.607Z,5.83
2022-10-05T13:04:40.338Z,6.28
2022-10-05T13:07:36.390Z,5.30
2022-10-05T13:10:21.292Z,6.00
2022-10-05T13:13:07.048Z,5.15
2022-10-05T13:16:07.908Z,6.47
2022-10-05T13:18:57.645Z,5.72
2022-10-05T13:21:47.366Z,6.88
2022-10-05T13:24:36.955Z,6.25
2022-10-05T13:27:04.325Z,6.20
2022-10-05T13:29:39.814Z,5.47
2022-10-05T13:32:17.368Z,5.28
2022-10-05T13:35:14.672Z,7.03
2022-10-05T13:38:06.046Z,5.50
2022-10-05T13:40:45.855Z,6.43
2022-10-05T13:43:24.455Z,7.23
2022-10-05T13:46:02.036Z,6.40
2022-10-05T13:49:11.620Z,5.45
2022-10-05T13:51:52.412Z,5.28
2022-10-05T13:54:28.688Z,6.80
2022-10-05T13:57:06.053Z,6.03
2022-10-05T13:59:35.949Z,5.95
2022-10-05T14:02:08.607Z,6.38
2022-10-05T14:04:59.100Z,5.60
2022-10-05T14:07:34.363Z,7.30
2022-10-05T14:10:04.628Z,5.90
2022-10-05T14:12:40.551Z,5.20
2022-10-05T14:15:23.038Z,6.27
2022-10-05T14:17:51.697Z,6.88
2022-10-05T14:20:23.826Z,7.78
2022-10-05T14:23:06.241Z,5.47
2022-10-05T14:25:47.211Z,7.30
2022-10-05T14:28:33.454Z,6.32
2022-10-05T14:31:02.414Z,6.82
2022-10-05T14:33:35.785Z,4.75
2022-10-05T14:36:03.288Z,6.77
2022-10-05T14:38:49.475Z,5.85
2022-10-05T14:41:22.123Z,7.65
2022-10-05T14:44:13.541Z,5.97
2022-10-05T14:46:53.434Z,5.68
2022-10-05T14:49:25.685Z,5.97
2022-10-05T14:51:54.650Z,6.57
2022-10-05T14:54:46.081Z,5.70
2022-10-05T14:57:33.520Z,5.95
2022-10-05T15:00:16.567Z,4.68
2022-10-05T15:02:49.452Z,6.05
2022-10-05T15:05:25.379Z,7.13
2022-10-05T15:07:59.432Z,4.95
2022-10-05T15:10:42.206Z,6.03
2022-10-05T15:13:15.793Z,5.63
2022-10-05T15:15:50.998Z,6.77
2022-10-05T15:18:20.908Z,5.75
2022-10-05T15:20:56.335Z,6.80
2022-10-05T15:23:42.869Z,5.07
2022-10-05T15:26:13.312Z,6.23
2022-10-05T15:28:54.461Z,7.00
2022-10-05T15:31:40.344Z,5.40
2022-10-05T15:34:27.586Z,4.80
2022-10-05T15:37:03.129Z,6.43
2022-10-05T15:39:44.230Z,5.00
2022-10-05T15:42:17.443Z,6.20
2022-10-05T15:45:13.181Z,7.27
2022-10-05T15:47:50.877Z,5.50
2022-10-05T15:50:27.107Z,6.53
2022-10-05T15:53:04.865Z,5.28
2022-10-05T15:55:56.155Z,6.05
2022-10-05T15:58:45.166Z,6.40
2022-10-05T16:01:15.634Z,6.80
2022-10-05T16:03:57.825Z,6.80
2022-10-05T16:06:48.701Z,5.82
2022-10-05T16:09:21.560Z,5.95
2022-10-05T16:11:56.520Z,6.50
2022-10-05T16:14:54.589Z,6.50
2022-10-05T16:17:34.655Z,6.03
2022-10-05T16:20:32.715Z,5.72
2022-10-05T16:23:05.912Z,7.07
2022-10-05T16:26:02.509Z,6.78
2022-10-05T16:28:54.224Z,4.15
2022-10-05T16:31:37.438Z,5.97
2022-10-05T16:34:36.795Z,5.50
2022-10-05T16:37:28.203Z,4.68
2022-10-05T16:40:19.026Z,5.20
2022-10-05T16:43:15.215Z,5.57
2022-10-05T16:46:10.054Z,3.42
2022-10-05T16:48:59.583Z,4.00
2022-10-05T16:51:53.768Z,5.53
2022-10-05T16:57:11.705Z,1.23
2022-10-05T17:00:15.539Z,1.92
2022-10-05T17:03:05.227Z,3.35
2022-10-05T17:05:33.010Z,5.70
2022-10-05T17:08:27.795Z,2.30
2022-10-05T17:11:05.809Z,3.08
2022-10-05T17:14:15.098Z,5.95
2022-10-05T17:17:26.312Z,3.47
2022-10-05T17:20:01.220Z,1.25
2022-10-05T17:22:39.863Z,2.10
2022-10-05T17:25:27.406Z,3.55
2022-10-05T17:27:56.088Z,2.20
2022-10-05T17:31:12.634Z,2.30
2022-10-05T17:34:10.674Z,1.67
2022-10-05T17:36:54.251Z,2.53
2022-10-05T17:39:46.391Z,4.07
2022-10-05T17:42:26.086Z,3.53
2022-10-05T17:45:14.717Z,3.17
2022-10-05T17:48:09.644Z,2.55
2022-10-05T17:53:52.417Z,2.92
2022-10-05T17:56:22.113Z,2.47
2022-10-05T17:58:55.039Z,7.07
2022-10-05T18:01:30.904Z,3.22
2022-10-05T18:04:25.418Z,5.15
2022-10-05T18:06:55.341Z,3.85
2022-10-05T18:09:22.549Z,2.90
2022-10-05T18:12:17.182Z,5.28
2022-10-05T18:15:23.138Z,3.13
2022-10-05T18:17:54.819Z,4.68
2022-10-05T18:20:24.380Z,4.72
2022-10-05T18:23:14.895Z,4.47
2022-10-05T18:25:52.071Z,6.13
2022-10-05T18:28:42.559Z,4.43
2022-10-05T18:31:12.322Z,4.43
2022-10-05T18:33:42.411Z,3.88
2022-10-05T18:36:27.381Z,5.38
2022-10-05T18:39:11.625Z,8.52
2022-10-05T18:42:03.503Z,3.20
2022-10-05T18:44:49.363Z,4.93
2022-10-05T18:47:29.206Z,5.07
2022-10-05T18:50:12.658Z,5.50
2022-10-05T18:52:57.792Z,7.35
2022-10-05T18:55:44.401Z,5.45
2022-10-05T18:58:56.880Z,3.38
2022-10-05T19:01:54.241Z,6.97
2022-10-05T19:04:23.863Z,6.13
2022-10-05T19:07:06.466Z,7.45
2022-10-05T19:10:03.039Z,4.38
2022-10-05T19:13:02.049Z,7.47
2022-10-05T19:15:39.707Z,3.83
2022-10-05T19:18:13.583Z,11.02
2022-10-05T19:21:12.746Z,7.15
2022-10-05T19:24:00.724Z,8.85
2022-10-05T19:27:06.766Z,5.63
2022-10-05T19:29:51.535Z,6.25
2022-10-05T19:32:56.764Z,7.10
2022-10-05T19:35:58.411Z,5.88
2022-10-05T19:38:25.346Z,5.07
2022-10-05T19:41:36.119Z,3.53
2022-10-05T19:44:12.514Z,7.93
2022-10-05T19:47:00.894Z,9.00
2022-10-05T19:49:43.697Z,6.70
2022-10-05T19:52:41.036Z,4.88
2022-10-05T19:55:22.368Z,8.70
2022-10-05T19:57:53.957Z,9.38
2022-10-05T20:00:32.473Z,6.85
2022-10-05T20:03:19.746Z,8.30
2022-10-05T20:05:48.065Z,8.02
2022-10-05T20:08:19.812Z,2.10
2022-10-05T20:11:08.177Z,10.38
2022-10-05T20:13:35.874Z,7.00
2022-10-05T20:16:31.744Z,7.35
2022-10-05T20:19:17.965Z,5.93
2022-10-05T20:21:56.777Z,11.68
2022-10-05T20:24:26.166Z,6.70
2022-10-05T20:27:16.196Z,8.90
2022-10-05T20:29:44.971Z,8.80
2022-10-05T20:32:15.221Z,7.45
2022-10-05T20:34:44.665Z,7.90
2022-10-05T20:37:13.591Z,3.83
2022-10-05T20:39:41.550Z,5.40
2022-10-05T20:42:09.791Z,6.97
2022-10-05T20:44:37.446Z,8.27
2022-10-05T20:47:08.809Z,8.25
2022-10-05T20:49:49.491Z,4.38
2022-10-05T20:52:17.451Z,6.43
2022-10-05T20:54:47.293Z,6.88
2022-10-05T20:57:14.452Z,7.72
2022-10-05T20:59:41.524Z,11.98
2022-10-05T21:02:10.583Z,9.98
2022-10-05T21:04:41.609Z,5.40
2022-10-05T21:07:09.147Z,4.75
2022-10-05T21:09:40.961Z,10.82
2022-10-05T21:12:07.910Z,5.30
2022-10-05T21:14:36.269Z,9.50
2022-10-05T21:17:04.247Z,8.20
2022-10-05T21:19:34.129Z,9.60
2022-10-05T21:22:02.515Z,7.95
2022-10-05T21:24:29.755Z,8.82
2022-10-05T21:26:57.717Z,10.98
2022-10-05T21:29:24.694Z,5.25
2022-10-05T21:31:51.704Z,7.00
2022-10-05T21:34:18.775Z,7.32
2022-10-05T21:36:45.697Z,8.10
2022-10-05T21:39:12.579Z,14.00
2022-10-05T21:41:39.554Z,12.32
2022-10-05T21:44:06.748Z,6.22
2022-10-05T21:46:36.309Z,11.07
2022-10-05T21:49:03.955Z,5.50
2022-10-05T21:51:31.197Z,7.05
2022-10-05T21:54:02.742Z,5.10
2022-10-05T21:56:34.903Z,11.57
2022-10-05T21:59:06.214Z,12.05
2022-10-05T22:01:35.934Z,11.02
2022-10-05T22:04:05.868Z,7.45
2022-10-05T22:06:34.438Z,13.55
2022-10-05T22:09:02.110Z,7.57
2022-10-05T22:11:29.803Z,6.25
2022-10-05T22:14:02.957Z,7.88
2022-10-05T22:16:36.633Z,12.93
2022-10-05T22:19:05.828Z,11.25
2022-10-05T22:21:37.873Z,7.50
2022-10-05T22:24:05.358Z,6.22
2022-10-05T22:26:33.480Z,7.95
2022-10-05T22:29:02.329Z,9.38
2022-10-05T22:31:30.311Z,10.55
2022-10-05T22:33:57.346Z,14.70
2022-10-05T22:36:24.538Z,7.03
2022-10-05T22:38:51.641Z,6.55
2022-10-05T22:41:18.574Z,9.02
2022-10-05T22:43:50.055Z,14.48
2022-10-05T22:46:17.719Z,8.50
2022-10-05T22:48:44.699Z,11.77
2022-10-05T22:51:12.354Z,9.07
2022-10-05T22:53:39.528Z,10.40
2022-10-05T22:56:12.814Z,8.15
2022-10-05T22:58:40.984Z,10.27
2022-10-05T23:01:12.479Z,6.78
2022-10-05T23:03:47.415Z,9.18
2022-10-05T23:06:18.846Z,13.18
2022-10-05T23:08:46.274Z,11.77
2022-10-05T23:11:16.370Z,7.03
2022-10-05T23:13:44.174Z,11.70
2022-10-05T23:16:13.723Z,13.77
2022-10-05T23:18:40.805Z,9.23
2022-10-05T23:21:09.834Z,7.93
2022-10-05T23:23:38.290Z,9.52
2022-10-05T23:26:07.275Z,14.00
2022-10-05T23:28:34.743Z,9.00
2022-10-05T23:31:04.943Z,13.55
2022-10-05T23:36:01.085Z,10.68
2022-10-05T23:38:28.417Z,6.63
2022-10-05T23:40:56.327Z,10.35
2022-10-05T23:43:23.254Z,10.98
2022-10-05T23:45:50.479Z,6.40
2022-10-05T23:48:18.582Z,10.25
2022-10-05T23:50:49.625Z,10.52
2022-10-05T23:53:17.725Z,11.20
2022-10-05T23:55:44.878Z,13.30
2022-10-05T23:58:12.363Z,11.15
